Time;durP1;ratioP1;P1;durP2;ratioP2;P2;SDS_P1;SDS_P2;PMS_P1;PMS_P2;Temp;Humidity;BMP_temperature;BMP_pressure;BME280_temperature;BME280_humidity;BME280_pressure;Samples;Min_cycle;Max_cycle;Signal;HPM_P1;HPM_P2
2023/04/09 00:00:22;;;;;;;3.88;1.27;;;;;;;7.62;100.00;97910.88;5070689;28;20105;-77
2023/04/09 00:02:48;;;;;;;2.05;1.75;;;;;;;7.61;100.00;97911.78;5069116;28;20025;-77
2023/04/09 00:05:14;;;;;;;6.35;3.10;;;;;;;7.64;100.00;97913.44;5069979;28;20024;-77
2023/04/09 00:07:39;;;;;;;10.30;2.92;;;;;;;7.62;100.00;97916.19;5056772;28;20021;-77
2023/04/09 00:10:05;;;;;;;2.65;2.08;;;;;;;7.55;100.00;97914.72;5074410;28;20035;-77
2023/04/09 00:12:31;;;;;;;4.03;2.28;;;;;;;7.51;100.00;97909.59;5053238;28;20017;-77
2023/04/09 00:14:56;;;;;;;4.85;2.83;;;;;;;7.51;100.00;97912.25;5054382;28;20506;-76
2023/04/09 00:17:22;;;;;;;4.18;1.90;;;;;;;7.44;100.00;97913.47;5074527;28;20035;-76
2023/04/09 00:19:47;;;;;;;2.67;1.98;;;;;;;7.47;100.00;97931.97;5039932;28;20028;-77
2023/04/09 00:22:14;;;;;;;5.35;2.17;;;;;;;7.43;100.00;97925.91;5064787;28;20107;-76
2023/04/09 00:24:39;;;;;;;6.22;3.55;;;;;;;7.45;100.00;97929.38;5056371;28;20032;-76
2023/04/09 00:27:05;;;;;;;4.20;2.97;;;;;;;7.49;100.00;97935.41;5073960;28;20474;-76
2023/04/09 00:29:30;;;;;;;4.65;2.70;;;;;;;7.49;100.00;97936.28;5072997;28;20034;-76
2023/04/09 00:31:56;;;;;;;2.35;1.98;;;;;;;7.49;100.00;97935.41;5072815;28;20483;-76
2023/04/09 00:34:22;;;;;;;2.97;1.67;;;;;;;7.49;100.00;97932.75;5055921;28;20020;-76
2023/04/09 00:36:47;;;;;;;2.40;2.20;;;;;;;7.40;100.00;97943.81;5072783;28;20037;-77
2023/04/09 00:39:12;;;;;;;8.20;2.78;;;;;;;7.42;100.00;97942.81;5072467;28;20024;-77
2023/04/09 00:41:38;;;;;;;3.08;2.78;;;;;;;7.49;100.00;97935.41;5072955;28;20050;-76
2023/04/09 00:44:03;;;;;;;5.75;3.03;;;;;;;7.52;100.00;97951.25;5075632;28;20556;-77
2023/04/09 00:46:30;;;;;;;5.43;2.63;;;;;;;7.51;100.00;97947.72;5076165;28;20073;-76
2023/04/09 00:48:56;;;;;;;7.47;2.08;;;;;;;7.56;100.00;97953.75;5058960;28;20056;-76
2023/04/09 00:51:21;;;;;;;7.57;3.80;;;;;;;7.54;100.00;97939.59;5075656;28;20056;-76
2023/04/09 00:53:47;;;;;;;9.00;3.50;;;;;;;7.58;100.00;97945.66;5093702;28;20463;-77
2023/04/09 00:56:14;;;;;;;3.42;2.50;;;;;;;7.61;100.00;97941.06;5093688;28;20024;-76
2023/04/09 00:58:40;;;;;;;2.20;1.98;;;;;;;7.63;100.00;97941.00;5075768;28;20467;-77
2023/04/09 01:01:06;;;;;;;3.35;3.05;;;;;;;7.64;100.00;97945.41;5093792;28;20037;-77
2023/04/09 01:03:31;;;;;;;5.30;1.92;;;;;;;7.63;100.00;97949.84;5055188;28;20112;-77
2023/04/09 01:06:24;;;;;;;5.97;3.10;;;;;;;7.56;100.00;97942.22;5058836;28;20438;-76
2023/04/09 01:09:03;;;;;;;3.42;2.40;;;;;;;7.48;100.00;97945.19;5091502;28;20081;-77
2023/04/09 01:12:20;;;;;;;4.28;2.47;;;;;;;7.50;100.00;97954.00;5075403;28;20376;-76
2023/04/09 01:15:05;;;;;;;18.58;3.28;;;;;;;7.55;100.00;97962.66;5090775;28;20391;-76
2023/04/09 01:17:50;;;;;;;1.85;1.70;;;;;;;7.47;100.00;97953.25;5074413;28;20036;-77
2023/04/09 01:20:30;;;;;;;3.83;2.25;;;;;;;7.57;100.00;97957.25;5075261;28;20546;-76
2023/04/09 01:23:05;;;;;;;1.77;1.65;;;;;;;7.66;100.00;97954.16;5075377;28;20050;-76
2023/04/09 01:26:12;;;;;;;4.82;2.40;;;;;;;7.63;100.00;97959.63;5075500;28;20123;-77
2023/04/09 01:28:45;;;;;;;5.85;4.18;;;;;;;7.60;100.00;97944.66;4983979;28;20462;-76
2023/04/09 01:31:13;;;;;;;3.55;2.28;;;;;;;7.62;100.00;97953.47;5071366;28;20031;-77
2023/04/09 01:33:40;;;;;;;6.75;3.50;;;;;;;7.52;100.00;97951.25;5075164;28;20399;-77
2023/04/09 01:36:06;;;;;;;5.57;2.50;;;;;;;7.54;100.00;97938.75;5093058;28;20024;-77
2023/04/09 01:38:36;;;;;;;1.30;1.20;;;;;;;7.52;100.00;97930.84;5074644;28;20486;-77
2023/04/09 01:41:03;;;;;;;3.00;2.33;;;;;;;7.56;100.00;97931.56;5074744;28;20028;-77
2023/04/09 01:43:29;;;;;;;2.45;2.25;;;;;;;7.58;100.00;97935.88;5055917;28;20036;-77
2023/04/09 01:45:55;;;;;;;5.00;2.25;;;;;;;7.57;100.00;97934.16;5057921;28;20020;-77
2023/04/09 01:48:21;;;;;;;3.72;3.13;;;;;;;7.52;100.00;97936.16;5074546;28;20100;-77
2023/04/09 01:50:47;;;;;;;4.00;2.95;;;;;;;7.46;100.00;97931.09;5057783;28;20107;-77
2023/04/09 01:53:12;;;;;;;2.92;2.53;;;;;;;7.37;100.00;97925.31;5092724;28;20032;-77
2023/04/09 01:55:38;;;;;;;4.82;1.95;;;;;;;7.27;100.00;97918.66;5074509;28;20036;-77
2023/04/09 01:58:04;;;;;;;2.80;1.40;;;;;;;7.16;100.00;97904.94;5074387;28;20548;-77
2023/04/09 02:00:38;;;;;;;1.58;1.48;;;;;;;7.05;100.00;97887.66;5055630;28;20108;-77
2023/04/09 02:03:10;;;;;;;2.30;2.08;;;;;;;7.11;100.00;97891.00;5057698;28;20036;-77
2023/04/09 02:05:37;;;;;;;2.15;1.95;;;;;;;7.11;100.00;97899.81;5074138;28;20373;-77
2023/04/09 02:08:05;;;;;;;7.93;3.72;;;;;;;7.04;100.00;97901.03;5074198;28;20402;-77
2023/04/09 02:10:33;;;;;;;2.40;1.88;;;;;;;7.07;100.00;97909.72;5074677;28;20020;-77
2023/04/09 02:12:59;;;;;;;1.35;1.27;;;;;;;7.10;100.00;97927.34;5057377;28;20018;-77
2023/04/09 02:15:25;;;;;;;9.18;3.03;;;;;;;7.09;100.00;97915.84;5057463;28;20028;-77
2023/04/09 02:17:51;;;;;;;2.53;2.33;;;;;;;7.12;100.00;97922.84;5057187;28;20454;-78
2023/04/09 02:20:17;;;;;;;1.08;1.00;;;;;;;7.14;100.00;97915.63;5057362;28;20102;-76
2023/04/09 02:22:44;;;;;;;1.67;1.55;;;;;;;7.13;100.00;97913.06;5073844;28;20077;-76
2023/04/09 02:25:09;;;;;;;1.67;1.55;;;;;;;7.23;100.00;97917.91;5091934;28;20028;-77
2023/04/09 02:27:34;;;;;;;15.80;3.47;;;;;;;7.24;100.00;97924.09;5053700;28;20039;-77
2023/04/09 02:30:00;;;;;;;3.83;1.50;;;;;;;7.30;100.00;97918.50;5073553;28;20020;-76
2023/04/09 02:32:26;;;;;;;1.92;1.55;;;;;;;7.34;100.00;97921.00;5091926;28;20031;-75
2023/04/09 02:34:51;;;;;;;3.50;1.83;;;;;;;7.27;100.00;97911.53;5073418;28;20081;-75
2023/04/09 02:37:17;;;;;;;2.13;1.90;;;;;;;7.26;100.00;97891.16;5073828;28;21131;-78
2023/04/09 02:39:43;;;;;;;2.35;1.63;;;;;;;7.24;100.00;97886.84;5073458;28;20028;-77
2023/04/09 02:42:08;;;;;;;2.65;1.95;;;;;;;7.33;100.00;97886.44;5073198;28;20052;-77
2023/04/09 02:44:34;;;;;;;1.58;1.48;;;;;;;7.38;100.00;97889.78;5073598;28;20028;-78
2023/04/09 02:46:59;;;;;;;3.78;1.77;;;;;;;7.39;100.00;97889.72;5091671;28;20038;-77
2023/04/09 02:49:25;;;;;;;2.00;1.75;;;;;;;7.37;100.00;97893.38;5073478;28;20035;-76
2023/04/09 02:51:50;;;;;;;1.70;1.60;;;;;;;7.46;100.00;97895.63;5091435;28;20024;-75
2023/04/09 02:54:16;;;;;;;3.75;1.92;;;;;;;7.43;100.00;97887.78;5073762;28;20024;-76
2023/04/09 02:56:41;;;;;;;5.70;2.60;;;;;;;7.44;100.00;97900.19;5073415;28;20486;-76
2023/04/09 02:59:07;;;;;;;1.77;1.45;;;;;;;7.36;100.00;97902.28;5073494;28;20031;-75
2023/04/09 03:01:32;;;;;;;1.08;0.95;;;;;;;7.25;100.00;97883.28;5056638;28;20399;-76
2023/04/09 03:03:59;;;;;;;2.50;1.88;;;;;;;7.17;100.00;97896.06;5073144;28;20023;-77
2023/04/09 03:06:25;;;;;;;2.55;1.15;;;;;;;7.15;100.00;97892.56;5073222;28;20023;-76
2023/04/09 03:08:50;;;;;;;1.55;1.25;;;;;;;7.20;100.00;97902.06;5053843;28;20031;-75
2023/04/09 03:11:16;;;;;;;1.15;1.08;;;;;;;7.22;100.00;97910.88;5073057;28;20031;-75
2023/04/09 03:13:42;;;;;;;2.47;2.28;;;;;;;7.27;100.00;97916.00;5091313;28;20016;-76
2023/04/09 03:16:09;;;;;;;2.90;2.40;;;;;;;7.27;100.00;97914.19;5072717;28;20027;-76
2023/04/09 03:18:35;;;;;;;2.13;1.60;;;;;;;7.27;100.00;97913.31;5056630;28;20031;-77
2023/04/09 03:21:06;;;;;;;3.28;2.00;;;;;;;7.31;100.00;97917.59;5056949;28;20028;-76
2023/04/09 03:23:33;;;;;;;4.03;2.38;;;;;;;7.31;100.00;97921.13;5048222;28;20550;-76
2023/04/09 03:26:05;;;;;;;0.80;0.80;;;;;;;7.36;100.00;97919.13;5056883;28;20042;-75
2023/04/09 03:28:31;;;;;;;1.55;1.33;;;;;;;7.35;100.00;97920.03;5073084;28;20138;-76
2023/04/09 03:30:57;;;;;;;0.47;0.47;;;;;;;7.34;100.00;97917.47;5073211;28;20059;-76
2023/04/09 03:33:24;;;;;;;2.13;1.75;;;;;;;7.42;100.00;97923.31;5072726;28;20028;-76
2023/04/09 03:35:50;;;;;;;2.30;2.05;;;;;;;7.48;100.00;97921.25;5073361;28;20453;-76
2023/04/09 03:38:15;;;;;;;2.40;1.73;;;;;;;7.53;100.00;97915.75;5072830;28;20032;-76
2023/04/09 03:40:41;;;;;;;2.28;1.48;;;;;;;7.50;100.00;97926.50;5072584;28;20078;-77
2023/04/09 03:43:07;;;;;;;3.42;1.52;;;;;;;7.55;100.00;97914.72;5072773;28;20482;-77
2023/04/09 03:45:33;;;;;;;2.50;1.42;;;;;;;7.53;100.00;97910.41;5055914;28;20071;-76
2023/04/09 03:47:58;;;;;;;2.08;1.38;;;;;;;7.57;100.00;97909.31;5072832;28;20058;-77
2023/04/09 03:50:24;;;;;;;1.40;1.30;;;;;;;7.59;100.00;97918.13;5072744;28;20092;-77
2023/04/09 03:52:49;;;;;;;1.70;1.35;;;;;;;7.55;100.00;97912.06;5072916;28;20055;-78
2023/04/09 03:55:15;;;;;;;2.97;2.15;;;;;;;7.63;100.00;97917.03;5090588;28;20054;-77
2023/04/09 03:57:40;;;;;;;2.00;1.85;;;;;;;7.60;100.00;97915.38;5073049;28;20020;-77
2023/04/09 04:00:06;;;;;;;5.43;1.90;;;;;;;7.59;100.00;97911.00;5072832;28;20024;-77
2023/04/09 04:02:32;;;;;;;5.25;1.75;;;;;;;7.60;100.00;97918.03;5090803;28;20086;-77
2023/04/09 04:05:00;;;;;;;1.67;1.33;;;;;;;7.56;100.00;97913.81;5072844;28;20106;-77
2023/04/09 04:07:26;;;;;;;2.00;1.60;;;;;;;7.61;100.00;97918.91;5072386;28;20031;-77
2023/04/09 04:09:51;;;;;;;1.73;1.40;;;;;;;7.63;100.00;97922.34;5072512;28;20028;-77
2023/04/09 04:12:17;;;;;;;3.10;2.83;;;;;;;7.58;100.00;97925.25;5072596;28;20028;-77
2023/04/09 04:14:42;;;;;;;4.10;1.98;;;;;;;7.62;100.00;97932.16;5072440;28;20058;-77
2023/04/09 04:17:09;;;;;;;3.08;1.88;;;;;;;7.61;100.00;97934.88;5091038;28;20471;-75
2023/04/09 04:19:34;;;;;;;2.85;1.73;;;;;;;7.58;100.00;97935.03;5054254;28;20036;-76
2023/04/09 04:22:00;;;;;;;1.50;1.40;;;;;;;7.61;100.00;97930.44;5090657;28;20168;-75
2023/04/09 04:24:25;;;;;;;2.45;1.15;;;;;;;7.60;100.00;97926.03;5053117;28;20036;-79
2023/04/09 04:26:51;;;;;;;3.03;2.03;;;;;;;7.63;100.00;97925.03;5052664;28;20476;-79
2023/04/09 04:29:16;;;;;;;1.48;1.38;;;;;;;7.69;100.00;97929.25;5068435;28;20032;-76
2023/04/09 04:31:42;;;;;;;2.28;1.63;;;;;;;7.63;100.00;97917.03;5072810;28;20497;-79
2023/04/09 04:34:07;;;;;;;1.98;1.45;;;;;;;7.66;100.00;97922.22;5056340;28;20024;-80
2023/04/09 04:36:33;;;;;;;3.28;1.55;;;;;;;7.70;100.00;97929.16;5056191;28;20428;-80
2023/04/09 04:38:58;;;;;;;1.48;1.17;;;;;;;7.76;100.00;97934.22;5072727;28;20420;-81
2023/04/09 04:41:24;;;;;;;1.98;1.58;;;;;;;7.89;100.00;97921.22;5073003;28;20479;-80
2023/04/09 04:43:49;;;;;;;3.08;2.08;;;;;;;8.01;100.00;97916.19;5072595;28;20035;-80
2023/04/09 04:46:15;;;;;;;3.58;2.40;;;;;;;8.11;100.00;97913.97;5055887;28;20035;-80
2023/04/09 04:48:40;;;;;;;4.70;2.47;;;;;;;8.10;100.00;97905.09;5090648;28;20028;-81
2023/04/09 04:51:06;;;;;;;2.08;1.60;;;;;;;8.17;100.00;97901.22;5056141;28;20139;-80
2023/04/09 04:53:31;;;;;;;3.75;2.17;;;;;;;8.26;100.00;97905.25;5093502;28;20027;-80
2023/04/09 04:55:57;;;;;;;1.50;1.40;;;;;;;8.39;100.00;97889.59;5077268;28;20442;-85
2023/04/09 04:58:24;;;;;;;3.30;2.45;;;;;;;8.50;100.00;97889.94;5077595;28;20039;-84
2023/04/09 05:00:49;;;;;;;3.50;2.53;;;;;;;8.56;100.00;97890.50;5077382;28;20024;-81
2023/04/09 05:03:15;;;;;;;6.75;1.90;;;;;;;8.59;100.00;97884.16;5076204;28;20115;-77
2023/04/09 05:05:40;;;;;;;7.70;2.38;;;;;;;8.63;100.00;97888.41;5075621;28;20028;-79
2023/04/09 05:08:06;;;;;;;2.28;1.98;;;;;;;8.66;100.00;97880.25;5076374;28;20032;-76
2023/04/09 05:10:32;;;;;;;1.95;1.83;;;;;;;8.73;100.00;97892.34;5075588;28;20027;-78
2023/04/09 05:12:57;;;;;;;3.28;1.65;;;;;;;8.78;100.00;97881.44;5075916;28;20031;-77
2023/04/09 05:15:23;;;;;;;1.38;1.27;;;;;;;8.79;100.00;97873.38;5075670;28;20116;-77
2023/04/09 05:17:49;;;;;;;6.60;2.97;;;;;;;8.93;100.00;97870.88;5093574;28;20059;-78
2023/04/09 05:20:14;;;;;;;4.15;1.98;;;;;;;8.80;100.00;97872.41;5076018;28;20399;-78
2023/04/09 05:22:40;;;;;;;3.97;1.95;;;;;;;8.78;100.00;97874.31;5093173;28;20399;-78
2023/04/09 05:25:06;;;;;;;5.88;3.58;;;;;;;8.58;100.00;97863.78;5058530;28;20032;-77
2023/04/09 05:27:31;;;;;;;7.70;3.63;;;;;;;8.62;100.00;97870.66;5058504;28;20031;-77
2023/04/09 05:29:57;;;;;;;4.80;2.42;;;;;;;8.52;100.00;97872.06;5075211;28;20024;-77
2023/04/09 05:32:22;;;;;;;3.03;2.28;;;;;;;8.69;100.00;97885.44;5075639;28;20392;-77
2023/04/09 05:34:48;;;;;;;4.28;3.50;;;;;;;8.82;100.00;97877.69;5056950;28;20024;-78
2023/04/09 05:37:13;;;;;;;2.65;2.15;;;;;;;8.98;100.00;97879.50;5058397;28;20461;-77
2023/04/09 05:39:39;;;;;;;4.20;3.65;;;;;;;9.08;100.00;97867.44;5075119;28;20118;-78
2023/04/09 05:42:04;;;;;;;6.57;4.00;;;;;;;9.11;100.00;97853.06;5072703;28;20027;-77
2023/04/09 05:44:30;;;;;;;5.65;3.15;;;;;;;9.11;100.00;97845.06;5055130;28;20545;-78
2023/04/09 05:46:56;;;;;;;5.68;2.58;;;;;;;9.15;100.00;97852.84;5037334;28;20029;-78
2023/04/09 05:49:21;;;;;;;8.93;2.85;;;;;;;9.30;100.00;97851.19;5072805;28;20024;-78
2023/04/09 05:51:48;;;;;;;4.50;3.15;;;;;;;9.51;100.00;97854.53;5055072;28;20031;-77
2023/04/09 05:54:14;;;;;;;4.28;3.05;;;;;;;9.39;100.00;97840.03;5055984;28;20108;-78
2023/04/09 05:56:40;;;;;;;6.72;3.30;;;;;;;9.37;100.00;97833.91;5056537;28;20158;-83
2023/04/09 05:59:05;;;;;;;10.52;4.75;;;;;;;9.58;100.00;97834.56;5056156;28;20032;-78
2023/04/09 06:01:31;;;;;;;5.57;2.28;;;;;;;9.79;100.00;97838.75;5036424;28;20032;-78
2023/04/09 06:03:56;;;;;;;13.30;4.50;;;;;;;9.69;100.00;97822.38;5034826;28;20036;-78
2023/04/09 06:06:21;;;;;;;11.23;4.15;;;;;;;9.71;100.00;97825.84;5052828;28;20139;-84
2023/04/09 06:08:47;;;;;;;10.82;6.10;;;;;;;9.93;100.00;97824.66;5035546;28;20090;-77
2023/04/09 06:11:15;;;;;;;4.85;3.78;;;;;;;9.86;100.00;97812.56;5069771;28;20032;-78
2023/04/09 06:13:41;;;;;;;7.43;3.53;;;;;;;9.89;100.00;97818.63;5035808;28;20028;-77
2023/04/09 06:16:07;;;;;;;3.55;3.03;;;;;;;9.97;100.00;97820.84;5053025;28;20024;-75
2023/04/09 06:18:33;;;;;;;3.47;1.98;;;;;;;9.74;100.00;97814.97;5035329;28;20089;-78
2023/04/09 06:21:07;;;;;;;2.45;2.10;;;;;;;9.85;100.00;97816.19;5051611;28;20035;-75
2023/04/09 06:23:36;;;;;;;6.22;3.28;;;;;;;10.01;100.00;97815.28;5052819;28;20016;-79
2023/04/09 06:26:02;;;;;;;1.77;1.63;;;;;;;9.96;100.00;97809.31;5033302;28;20597;-77
2023/04/09 06:28:28;;;;;;;5.70;3.30;;;;;;;10.15;100.00;97826.06;5051812;28;20139;-79
2023/04/09 06:30:54;;;;;;;4.03;2.83;;;;;;;10.17;100.00;97816.19;5034995;28;20019;-80
2023/04/09 06:33:20;;;;;;;3.60;2.45;;;;;;;10.33;100.00;97814.38;5069817;28;20044;-79
2023/04/09 06:35:46;;;;;;;3.03;2.42;;;;;;;10.03;100.00;97810.69;5051103;28;20028;-77
2023/04/09 06:38:11;;;;;;;4.72;3.10;;;;;;;10.15;100.00;97809.19;5032998;28;20047;-77
2023/04/09 06:40:37;;;;;;;6.20;3.53;;;;;;;10.36;100.00;97813.34;5069061;28;20078;-77
2023/04/09 06:43:04;;;;;;;6.03;3.53;;;;;;;10.22;100.00;97806.09;5058312;28;20044;-78
2023/04/09 06:45:30;;;;;;;6.63;4.38;;;;;;;10.12;100.00;97817.34;5069049;28;20044;-77
2023/04/09 06:47:55;;;;;;;11.57;3.67;;;;;;;10.23;100.00;97813.16;5067583;28;20028;-78
2023/04/09 06:50:21;;;;;;;7.65;3.28;;;;;;;10.53;100.00;97809.69;5049878;28;20280;-79
2023/04/09 06:52:46;;;;;;;5.43;3.80;;;;;;;10.64;100.00;97801.91;5067616;28;20034;-78
2023/04/09 06:55:12;;;;;;;2.88;1.83;;;;;;;10.77;100.00;97798.41;5069552;28;20031;-79
2023/04/09 06:57:38;;;;;;;13.80;2.25;;;;;;;10.70;100.00;97796.22;5049259;28;20044;-78
2023/04/09 07:00:04;;;;;;;6.88;3.00;;;;;;;10.96;100.00;97797.31;5047985;28;20037;-78
2023/04/09 07:02:29;;;;;;;4.82;1.88;;;;;;;11.15;100.00;97793.47;5067205;28;20033;-78
2023/04/09 07:04:55;;;;;;;4.20;2.25;;;;;;;11.50;100.00;97777.94;5049827;28;20075;-79
2023/04/09 07:07:21;;;;;;;2.13;1.85;;;;;;;11.77;100.00;97780.72;5067710;28;20381;-80
2023/04/09 07:09:47;;;;;;;2.90;1.67;;;;;;;11.99;100.00;97769.50;5050719;28;20032;-78
2023/04/09 07:12:13;;;;;;;2.38;1.90;;;;;;;12.26;100.00;97768.59;5050755;28;20075;-82
2023/04/09 07:14:38;;;;;;;4.32;3.25;;;;;;;12.16;100.00;97762.09;5047879;28;20052;-76
2023/04/09 07:17:04;;;;;;;3.13;2.05;;;;;;;12.16;100.00;97751.38;5067054;28;20030;-78
2023/04/09 07:19:32;;;;;;;4.57;2.80;;;;;;;12.26;100.00;97740.91;5067261;28;20031;-76
2023/04/09 07:21:57;;;;;;;5.07;2.35;;;;;;;12.25;100.00;97755.25;5049998;28;20046;-77
2023/04/09 07:24:23;;;;;;;1.75;1.35;;;;;;;12.00;100.00;97747.94;5068374;28;20029;-78
2023/04/09 07:26:49;;;;;;;1.45;1.35;;;;;;;11.56;100.00;97740.03;5068459;28;20460;-76
2023/04/09 07:29:14;;;;;;;0.95;0.93;;;;;;;11.45;100.00;97747.88;5050577;28;20111;-76
2023/04/09 07:31:40;;;;;;;1.00;0.70;;;;;;;11.44;100.00;97749.69;5068395;28;20116;-76
2023/04/09 07:34:05;;;;;;;2.33;1.45;;;;;;;11.64;100.00;97753.81;5067232;28;20095;-78
2023/04/09 07:36:31;;;;;;;1.23;1.08;;;;;;;11.64;100.00;97745.78;5050281;28;20036;-77
2023/04/09 07:38:57;;;;;;;1.92;1.40;;;;;;;11.76;100.00;97761.09;5068241;28;20035;-77
2023/04/09 07:41:22;;;;;;;2.65;1.15;;;;;;;11.84;100.00;97750.75;5068415;28;20036;-78
2023/04/09 07:43:48;;;;;;;2.63;0.77;;;;;;;11.88;100.00;97757.66;5069961;28;20048;-78
2023/04/09 07:46:22;;;;;;;1.08;0.98;;;;;;;11.86;100.00;97769.44;5069735;28;20070;-77
2023/04/09 07:48:49;;;;;;;2.17;1.65;;;;;;;11.99;100.00;97759.66;5070906;28;20048;-77
2023/04/09 07:51:15;;;;;;;3.25;1.77;;;;;;;12.15;100.00;97762.22;5053135;28;20467;-77
2023/04/09 07:53:40;;;;;;;3.40;1.30;;;;;;;12.14;100.00;97752.44;5070085;28;20024;-76
2023/04/09 07:56:06;;;;;;;1.70;1.52;;;;;;;12.23;100.00;97766.09;5052885;28;20093;-77
2023/04/09 07:58:32;;;;;;;2.13;0.88;;;;;;;12.33;100.00;97753.84;5070150;28;20500;-78
2023/04/09 08:00:57;;;;;;;3.33;1.45;;;;;;;12.24;100.00;97759.75;5053188;28;20031;-77
2023/04/09 08:03:23;;;;;;;16.80;2.65;;;;;;;12.20;100.00;97762.75;5069919;28;20107;-77
2023/04/09 08:05:48;;;;;;;3.08;1.92;;;;;;;12.10;100.00;97767.84;5070064;28;20024;-77
2023/04/09 08:08:14;;;;;;;1.42;1.33;;;;;;;11.96;100.00;97765.22;5050379;28;20055;-76
2023/04/09 08:10:39;;;;;;;1.58;1.33;;;;;;;12.12;100.00;97779.34;5068321;28;20050;-76
2023/04/09 08:13:05;;;;;;;3.45;1.52;;;;;;;12.27;100.00;97780.19;5069944;28;20028;-76
2023/04/09 08:15:31;;;;;;;2.05;1.17;;;;;;;12.56;100.00;97792.53;5069803;28;20479;-77
2023/04/09 08:17:57;;;;;;;2.38;2.17;;;;;;;12.87;100.00;97799.41;5069996;28;20035;-76
2023/04/09 08:20:22;;;;;;;4.70;2.30;;;;;;;12.75;100.00;97792.19;5053405;28;20032;-78
2023/04/09 08:22:48;;;;;;;3.03;1.70;;;;;;;12.62;100.00;97807.38;5069941;28;20092;-77
2023/04/09 08:25:13;;;;;;;2.40;1.02;;;;;;;12.37;100.00;97808.97;5052755;28;20085;-78
2023/04/09 08:27:39;;;;;;;2.45;1.75;;;;;;;12.05;100.00;97818.25;5091000;28;20028;-77
2023/04/09 08:30:05;;;;;;;3.95;2.17;;;;;;;11.96;100.00;97821.50;5056691;28;20523;-78
2023/04/09 08:32:31;;;;;;;2.55;1.88;;;;;;;11.79;100.00;97819.00;5073597;28;20153;-77
2023/04/09 08:34:56;;;;;;;1.50;1.20;;;;;;;11.94;100.00;97826.09;5073617;28;20098;-77
2023/04/09 08:37:28;;;;;;;3.30;2.17;;;;;;;11.97;100.00;97817.84;5073646;28;20525;-78
2023/04/09 08:39:54;;;;;;;3.05;1.88;;;;;;;11.93;100.00;97816.34;5057085;28;20035;-78
2023/04/09 08:42:20;;;;;;;1.95;1.33;;;;;;;11.90;100.00;97813.84;5053784;28;20040;-78
2023/04/09 08:44:46;;;;;;;1.88;1.48;;;;;;;12.05;100.00;97812.88;5072031;28;20067;-81
2023/04/09 08:47:12;;;;;;;1.33;1.00;;;;;;;12.18;100.00;97808.44;5053942;28;20063;-79
2023/04/09 08:49:40;;;;;;;3.72;1.17;;;;;;;12.39;100.00;97809.75;5050226;28;20036;-79
2023/04/09 08:52:06;;;;;;;10.65;3.33;;;;;;;12.80;100.00;97793.59;5050895;28;20492;-76
2023/04/09 08:54:32;;;;;;;4.97;2.70;;;;;;;13.12;100.00;97806.72;5070266;28;20050;-76
2023/04/09 08:56:58;;;;;;;7.25;3.75;;;;;;;13.63;100.00;97789.66;5052155;28;20029;-76
2023/04/09 08:59:26;;;;;;;3.70;1.77;;;;;;;14.55;99.98;97782.94;5072266;28;20039;-79
2023/04/09 09:02:10;;;;;;;5.30;2.88;;;;;;;15.24;90.98;97766.97;5071036;28;20025;-77
2023/04/09 09:04:46;;;;;;;1.40;1.20;;;;;;;15.00;89.25;97767.00;5053179;28;20123;-77
2023/04/09 09:07:12;;;;;;;1.70;1.23;;;;;;;15.04;88.63;97771.19;5069572;28;20064;-76
2023/04/09 09:09:52;;;;;;;3.45;1.10;;;;;;;15.10;90.28;97765.34;5069707;28;20480;-77
2023/04/09 09:12:37;;;;;;;11.43;1.73;;;;;;;15.30;87.34;97759.25;5069601;28;20496;-78
2023/04/09 09:15:04;;;;;;;2.30;1.38;;;;;;;15.25;87.71;97755.22;5069503;28;20099;-78
2023/04/09 09:17:30;;;;;;;3.40;2.00;;;;;;;15.19;86.65;97759.25;5069433;28;20492;-78
2023/04/09 09:19:55;;;;;;;5.10;2.45;;;;;;;14.92;86.83;97751.41;5053043;28;20107;-78
2023/04/09 09:22:21;;;;;;;2.38;1.50;;;;;;;14.88;86.89;97749.09;5050772;28;20127;-76
2023/04/09 09:24:51;;;;;;;2.00;1.52;;;;;;;14.69;92.58;97757.69;5069507;28;20037;-77
2023/04/09 09:27:35;;;;;;;5.97;3.20;;;;;;;14.27;94.54;97764.41;5069126;28;20111;-77
2023/04/09 09:30:07;;;;;;;3.63;2.50;;;;;;;14.17;96.26;97763.34;5069558;28;20020;-76
2023/04/09 09:32:33;;;;;;;3.17;1.63;;;;;;;14.31;98.82;97765.03;5068607;28;20120;-77
2023/04/09 09:35:02;;;;;;;2.42;1.88;;;;;;;14.37;98.75;97767.28;5069111;28;20107;-78
2023/04/09 09:37:28;;;;;;;2.05;1.80;;;;;;;14.27;99.29;97763.53;5051255;28;20055;-78
2023/04/09 09:40:03;;;;;;;5.00;1.17;;;;;;;13.75;100.00;97769.13;5069167;28;20036;-77
2023/04/09 09:42:35;;;;;;;1.58;1.02;;;;;;;13.26;100.00;97767.19;5055952;28;20087;-77
2023/04/09 09:45:27;;;;;;;2.05;0.90;;;;;;;12.96;100.00;97761.19;5073081;28;20028;-78
2023/04/09 09:47:53;;;;;;;3.97;1.63;;;;;;;12.96;100.00;97747.78;5085994;28;20533;-77
2023/04/09 09:50:21;;;;;;;3.53;1.30;;;;;;;12.83;100.00;97752.25;5055752;28;20028;-77
2023/04/09 09:52:46;;;;;;;8.10;1.77;;;;;;;13.29;100.00;97758.91;5055691;28;20480;-77
2023/04/09 09:55:16;;;;;;;3.67;2.33;;;;;;;13.58;100.00;97747.00;5055745;28;20043;-77
2023/04/09 09:57:43;;;;;;;3.53;1.73;;;;;;;13.49;100.00;97753.03;5071830;28;20438;-77
2023/04/09 10:00:11;;;;;;;3.88;2.75;;;;;;;13.67;100.00;97750.00;5060316;28;20495;-77
2023/04/09 10:02:45;;;;;;;1.48;1.20;;;;;;;13.69;100.00;97740.00;5091839;28;20476;-77
2023/04/09 10:05:11;;;;;;;0.70;0.70;;;;;;;13.99;100.00;97741.34;5058122;28;20031;-77
2023/04/09 10:07:37;;;;;;;5.13;1.92;;;;;;;14.32;99.90;97746.09;5057728;28;20028;-77
2023/04/09 10:10:04;;;;;;;1.35;1.10;;;;;;;14.34;96.55;97729.84;5058070;28;20035;-76
2023/04/09 10:12:30;;;;;;;2.13;1.50;;;;;;;14.61;98.25;97744.78;5074436;28;20024;-78
2023/04/09 10:15:03;;;;;;;1.17;1.00;;;;;;;14.50;93.10;97725.91;5074716;28;20043;-77
2023/04/09 10:17:47;;;;;;;1.25;1.05;;;;;;;14.28;96.31;97728.44;5074462;28;20028;-78
2023/04/09 10:20:22;;;;;;;0.73;0.65;;;;;;;14.77;98.21;97732.88;5074905;28;20024;-80
2023/04/09 10:22:49;;;;;;;2.92;1.70;;;;;;;15.12;89.37;97722.97;5057350;28;20067;-78
2023/04/09 10:25:15;;;;;;;0.85;0.85;;;;;;;15.60;85.73;97711.03;5074298;28;20043;-78
2023/04/09 10:27:44;;;;;;;3.60;1.17;;;;;;;15.54;86.11;97714.22;5073954;28;20024;-77
2023/04/09 10:30:30;;;;;;;3.03;1.30;;;;;;;15.42;88.00;97708.91;5074766;28;20103;-78
2023/04/09 10:33:10;;;;;;;1.25;0.90;;;;;;;14.97;87.42;97698.06;5057101;28;20040;-77
2023/04/09 10:35:36;;;;;;;1.67;1.50;;;;;;;15.04;89.53;97704.69;5074357;28;20475;-79
2023/04/09 10:38:01;;;;;;;3.63;2.15;;;;;;;15.09;92.30;97718.66;5057706;28;20035;-79
2023/04/09 10:40:27;;;;;;;1.45;1.35;;;;;;;15.10;89.00;97697.97;5054377;28;20036;-78
2023/04/09 10:42:54;;;;;;;2.15;1.02;;;;;;;15.07;89.77;97703.59;5073177;28;20123;-81
2023/04/09 10:45:20;;;;;;;2.63;1.88;;;;;;;14.71;91.76;97701.88;5057231;28;20051;-78
2023/04/09 10:47:50;;;;;;;19.10;12.35;;;;;;;14.18;93.61;97691.56;5073890;28;20028;-76
2023/04/09 10:50:21;;;;;;;17.00;10.30;;;;;;;14.08;93.64;97699.47;5073420;28;20028;-77
2023/04/09 10:52:51;;;;;;;18.65;12.60;;;;;;;13.97;96.32;97694.00;5055825;28;20032;-75
2023/04/09 10:55:39;;;;;;;30.10;18.10;;;;;;;14.00;98.20;97700.00;5091736;28;20020;-76
2023/04/09 10:58:09;;;;;;;35.15;17.95;;;;;;;13.92;100.00;97706.94;5067505;28;20036;-77
2023/04/09 11:00:43;;;;;;;26.50;15.57;;;;;;;13.50;100.00;97703.66;5050974;28;20595;-76
2023/04/09 11:03:24;;;;;;;24.65;13.43;;;;;;;13.43;100.00;97707.78;5054474;28;20032;-76
2023/04/09 11:06:00;;;;;;;38.78;22.58;;;;;;;13.23;100.00;97710.97;5070348;28;20051;-77
2023/04/09 11:08:33;;;;;;;29.75;17.30;;;;;;;13.14;100.00;97706.25;5088660;28;20036;-76
2023/04/09 11:11:00;;;;;;;29.63;17.88;;;;;;;13.01;100.00;97708.06;5070388;28;20037;-76
2023/04/09 11:13:26;;;;;;;19.92;12.90;;;;;;;12.73;100.00;97716.28;5070803;28;20054;-76
2023/04/09 11:15:53;;;;;;;21.30;13.45;;;;;;;12.64;100.00;97727.63;5053454;28;20086;-76
2023/04/09 11:18:24;;;;;;;26.80;14.27;;;;;;;12.54;100.00;97729.22;5070411;28;20040;-76
2023/04/09 11:20:54;;;;;;;24.15;15.02;;;;;;;12.50;100.00;97742.81;5088303;28;20194;-76
2023/04/09 11:23:19;;;;;;;21.33;12.55;;;;;;;12.36;100.00;97736.66;5070424;28;20127;-76
2023/04/09 11:25:49;;;;;;;22.77;13.77;;;;;;;12.24;100.00;97732.13;5053756;28;20115;-77
2023/04/09 11:28:14;;;;;;;20.27;13.65;;;;;;;12.16;100.00;97743.31;5070685;28;20039;-76
2023/04/09 11:30:41;;;;;;;26.65;15.75;;;;;;;12.26;100.00;97740.91;5070399;28;20574;-76